Time;durP1;ratioP1;P1;durP2;ratioP2;P2;SDS_P1;SDS_P2;PMS_P1;PMS_P2;Temp;Humidity;BMP_temperature;BMP_pressure;BME280_temperature;BME280_humidity;BME280_pressure;Samples;Min_cycle;Max_cycle;Signal;HPM_P1;HPM_P2
2022/03/27 00:00:39;;;;;;;29.43;25.47;;;;;20.90;102000.00;;;;2078664;28;20576;-46
2022/03/27 00:01:39;;;;;;;28.80;25.40;;;;;20.90;101991.00;;;;2078440;28;20809;-46
2022/03/27 00:02:40;;;;;;;31.23;26.90;;;;;20.90;101997.00;;;;2070610;28;20453;-45
2022/03/27 00:03:41;;;;;;;28.55;24.25;;;;;20.80;101997.00;;;;2071986;28;20766;-46
2022/03/27 00:04:41;;;;;;;31.40;26.23;;;;;20.80;101999.00;;;;2078385;28;20225;-46
2022/03/27 00:05:41;;;;;;;26.93;24.10;;;;;20.60;102002.00;;;;2077753;28;20217;-45
2022/03/27 00:06:42;;;;;;;29.07;23.83;;;;;20.80;101994.00;;;;2078577;28;20225;-46
2022/03/27 00:07:42;;;;;;;28.13;24.93;;;;;20.90;101998.00;;;;2078257;28;20275;-46
2022/03/27 00:08:42;;;;;;;28.67;23.50;;;;;20.90;101996.00;;;;2078677;28;20262;-46
2022/03/27 00:09:43;;;;;;;25.57;21.73;;;;;20.90;101991.00;;;;2078555;28;20217;-45
2022/03/27 00:12:03;;;;;;;26.17;23.08;;;;;20.90;101990.00;;;;2078189;28;20221;-45
2022/03/27 00:13:04;;;;;;;28.13;23.95;;;;;20.90;101991.00;;;;2077594;28;20222;-46
2022/03/27 00:14:05;;;;;;;26.13;22.87;;;;;20.90;101992.00;;;;2069875;28;20214;-46
2022/03/27 00:15:05;;;;;;;26.90;24.00;;;;;20.80;101994.00;;;;2069483;28;20226;-46
2022/03/27 00:16:06;;;;;;;26.60;22.57;;;;;20.80;101993.00;;;;2064098;28;20727;-46
2022/03/27 00:17:06;;;;;;;25.87;21.83;;;;;20.80;101993.00;;;;2085471;28;20213;-46
2022/03/27 00:18:07;;;;;;;26.57;21.67;;;;;20.80;102000.00;;;;2081079;28;20202;-46
2022/03/27 00:19:07;;;;;;;25.87;21.60;;;;;20.80;102004.00;;;;2078382;28;20218;-46
2022/03/27 00:20:08;;;;;;;27.37;21.70;;;;;20.80;101995.00;;;;2078465;28;20550;-46
2022/03/27 00:21:08;;;;;;;24.23;21.20;;;;;20.80;101996.00;;;;2078180;28;20214;-46
2022/03/27 00:22:09;;;;;;;24.33;21.40;;;;;20.80;102000.00;;;;2078600;28;20221;-46
2022/03/27 00:23:09;;;;;;;23.67;20.13;;;;;20.80;102002.00;;;;2078473;28;20343;-46
2022/03/27 00:24:09;;;;;;;25.10;20.77;;;;;20.80;102000.00;;;;2078369;28;20271;-45
2022/03/27 00:25:10;;;;;;;25.83;21.13;;;;;20.80;102001.00;;;;2077998;28;20206;-46
2022/03/27 00:26:10;;;;;;;22.37;19.50;;;;;20.80;102011.00;;;;2077449;28;20221;-46
2022/03/27 00:27:11;;;;;;;23.80;19.70;;;;;20.80;101999.00;;;;2078385;28;20256;-46
2022/03/27 00:28:11;;;;;;;22.20;19.90;;;;;20.80;102000.00;;;;2077761;28;20217;-46
2022/03/27 00:29:15;;;;;;;24.53;21.40;;;;;20.80;102001.00;;;;2078437;28;20240;-46
2022/03/27 00:30:15;;;;;;;22.98;19.20;;;;;20.80;101998.00;;;;2072670;28;20449;-46
2022/03/27 00:31:15;;;;;;;23.33;19.20;;;;;20.80;101994.00;;;;2069940;28;20225;-45
2022/03/27 00:32:16;;;;;;;21.10;18.90;;;;;20.80;101990.00;;;;2070286;28;20242;-44
2022/03/27 00:33:18;;;;;;;20.90;18.57;;;;;20.80;101994.00;;;;2070456;28;20563;-45
2022/03/27 00:34:21;;;;;;;23.00;18.95;;;;;20.80;102002.00;;;;2073362;28;20213;-45
2022/03/27 00:35:22;;;;;;;23.40;19.58;;;;;20.80;101993.00;;;;2075943;28;20592;-45
2022/03/27 00:36:22;;;;;;;21.43;18.10;;;;;20.80;101985.00;;;;2071024;28;20313;-45
2022/03/27 00:37:22;;;;;;;20.60;18.43;;;;;20.80;101990.00;;;;2070241;28;20218;-44
2022/03/27 00:38:23;;;;;;;21.87;19.43;;;;;20.80;101996.00;;;;2070576;28;20214;-45
2022/03/27 00:39:23;;;;;;;22.23;19.47;;;;;20.80;101989.00;;;;2070449;28;20214;-46
2022/03/27 00:40:23;;;;;;;20.60;18.43;;;;;20.80;101987.00;;;;2070395;28;20222;-46
2022/03/27 00:41:24;;;;;;;19.80;16.87;;;;;20.80;101988.00;;;;2070246;28;20297;-46
2022/03/27 00:42:24;;;;;;;20.67;18.57;;;;;20.70;101991.00;;;;2070218;28;20244;-46
2022/03/27 00:43:25;;;;;;;19.30;17.20;;;;;20.80;101985.00;;;;2070181;28;20610;-46
2022/03/27 00:44:25;;;;;;;20.40;17.47;;;;;20.70;101991.00;;;;2069873;28;20240;-46
2022/03/27 00:45:26;;;;;;;20.70;17.60;;;;;20.80;101989.00;;;;2069634;28;20214;-45
2022/03/27 00:46:26;;;;;;;18.87;16.20;;;;;20.80;101995.00;;;;2070999;28;20214;-46
2022/03/27 00:47:26;;;;;;;18.63;16.67;;;;;20.80;101988.00;;;;2070807;28;20308;-46
2022/03/27 00:48:27;;;;;;;20.33;18.00;;;;;20.70;101983.00;;;;2071328;28;20230;-45
2022/03/27 00:49:28;;;;;;;21.33;15.40;;;;;20.80;101988.00;;;;2071355;28;20301;-46
2022/03/27 00:50:30;;;;;;;19.88;17.77;;;;;20.70;101989.00;;;;2070543;28;20210;-46
2022/03/27 00:51:31;;;;;;;19.48;16.42;;;;;20.70;101990.00;;;;2071054;28;20306;-47
2022/03/27 00:52:31;;;;;;;19.47;16.97;;;;;20.70;101987.00;;;;2075003;28;20241;-46
2022/03/27 00:53:32;;;;;;;19.73;16.90;;;;;20.70;101990.00;;;;2079618;28;20456;-46
2022/03/27 00:54:32;;;;;;;19.27;16.50;;;;;20.70;101988.00;;;;2075645;28;20218;-46
2022/03/27 00:55:33;;;;;;;18.43;16.27;;;;;20.70;101995.00;;;;2073036;28;20356;-46
2022/03/27 00:56:33;;;;;;;17.40;14.63;;;;;20.70;101991.00;;;;2071754;28;20210;-46
2022/03/27 00:57:33;;;;;;;17.67;14.87;;;;;20.70;101994.00;;;;2075167;28;20214;-48
2022/03/27 00:58:34;;;;;;;18.73;16.73;;;;;20.70;101990.00;;;;2071692;28;20225;-47
2022/03/27 00:59:34;;;;;;;15.23;13.60;;;;;20.70;101989.00;;;;2071909;28;20214;-46
2022/03/27 01:01:18;;;;;;;15.80;14.10;;;;;20.70;101994.00;;;;2072003;28;20214;-45
2022/03/27 01:02:20;;;;;;;15.18;13.38;;;;;20.70;101994.00;;;;2068489;28;20210;-47
2022/03/27 01:03:21;;;;;;;18.80;16.35;;;;;20.70;101998.00;;;;2075808;28;20711;-45
2022/03/27 01:04:21;;;;;;;17.63;15.07;;;;;20.70;101988.00;;;;2071912;28;20214;-45
2022/03/27 01:05:22;;;;;;;17.50;15.60;;;;;20.70;101988.00;;;;2078212;28;20221;-45
2022/03/27 01:06:35;;;;;;;15.10;13.50;;;;;20.70;101990.00;;;;2075252;28;20202;-48
2022/03/27 01:07:36;;;;;;;17.27;14.23;;;;;20.70;101980.00;;;;2075209;28;20209;-44
2022/03/27 01:10:03;;;;;;;17.05;14.02;;;;;20.70;101983.00;;;;2070774;28;20214;-46
2022/03/27 01:11:09;;;;;;;17.23;15.03;;;;;20.70;101988.00;;;;2070492;28;20226;-45
2022/03/27 01:12:20;;;;;;;15.45;12.80;;;;;20.70;101999.00;;;;2058267;28;20320;-44
2022/03/27 01:13:21;;;;;;;14.57;12.95;;;;;20.70;101984.00;;;;2071859;28;20292;-46
2022/03/27 01:14:40;;;;;;;15.90;13.87;;;;;20.30;101974.00;;;;2071862;28;20210;-46
2022/03/27 01:15:43;;;;;;;14.23;12.70;;;;;20.70;101981.00;;;;2071155;28;20495;-46
2022/03/27 01:16:46;;;;;;;15.38;13.77;;;;;20.70;101985.00;;;;2074981;28;20221;-45
2022/03/27 01:17:46;;;;;;;16.27;13.15;;;;;20.70;101974.00;;;;2074659;28;20221;-45
2022/03/27 01:18:46;;;;;;;14.80;12.60;;;;;20.70;101967.00;;;;2071692;28;20222;-45
2022/03/27 01:19:48;;;;;;;13.70;11.73;;;;;20.70;101972.00;;;;2071161;28;20218;-44
2022/03/27 01:20:49;;;;;;;14.10;12.63;;;;;20.70;101979.00;;;;2076564;28;20289;-44
2022/03/27 01:21:49;;;;;;;13.67;12.27;;;;;20.70;101975.00;;;;2078906;28;20217;-46
2022/03/27 01:22:49;;;;;;;13.10;11.70;;;;;20.70;101978.00;;;;2071807;28;20217;-45
2022/03/27 01:23:50;;;;;;;13.43;12.03;;;;;20.70;101977.00;;;;2072868;28;20213;-44
2022/03/27 01:24:51;;;;;;;15.37;12.10;;;;;20.70;101980.00;;;;2070340;28;20260;-45
2022/03/27 01:25:51;;;;;;;14.95;11.70;;;;;20.70;101990.00;;;;2066422;28;20203;-47
2022/03/27 01:26:52;;;;;;;14.00;12.40;;;;;20.60;101978.00;;;;2079231;28;20625;-45
2022/03/27 01:27:52;;;;;;;15.50;13.83;;;;;20.60;101971.00;;;;2077296;28;20871;-45
2022/03/27 01:28:52;;;;;;;13.17;11.83;;;;;20.60;101977.00;;;;2077344;28;20205;-44
2022/03/27 01:29:55;;;;;;;13.30;11.90;;;;;20.60;101973.00;;;;2075056;28;20214;-47
2022/03/27 01:30:56;;;;;;;13.60;11.07;;;;;20.60;101978.00;;;;2075953;28;20215;-44
2022/03/27 01:31:56;;;;;;;13.47;11.67;;;;;20.60;101964.00;;;;2079283;28;20218;-45
2022/03/27 01:32:57;;;;;;;13.07;11.73;;;;;20.70;101967.00;;;;2076742;28;20519;-45
2022/03/27 01:33:57;;;;;;;12.30;10.50;;;;;20.60;101960.00;;;;2078221;28;20284;-44
2022/03/27 01:34:57;;;;;;;12.67;11.20;;;;;20.60;101965.00;;;;2074923;28;20221;-45
2022/03/27 01:35:58;;;;;;;12.33;11.07;;;;;20.60;101958.00;;;;2076041;28;20228;-46
2022/03/27 01:37:06;;;;;;;13.37;11.63;;;;;20.60;101956.00;;;;2076089;28;20276;-45
2022/03/27 01:38:06;;;;;;;13.13;11.82;;;;;20.60;101961.00;;;;2071142;28;20214;-46
2022/03/27 01:39:08;;;;;;;12.47;11.17;;;;;20.60;101955.00;;;;2076125;28;20214;-45
2022/03/27 01:40:09;;;;;;;13.27;11.73;;;;;20.60;101957.00;;;;2073293;28;20217;-46
2022/03/27 01:41:09;;;;;;;13.77;12.35;;;;;20.70;101963.00;;;;2070703;28;20260;-49
2022/03/27 01:42:10;;;;;;;12.50;10.80;;;;;20.60;101960.00;;;;2078007;28;20225;-47
2022/03/27 01:43:10;;;;;;;14.30;11.70;;;;;20.60;101952.00;;;;2071182;28;20265;-46
2022/03/27 01:44:13;;;;;;;12.13;10.57;;;;;20.60;101949.00;;;;2077405;28;20210;-46
2022/03/27 01:45:13;;;;;;;11.98;10.77;;;;;20.60;101952.00;;;;2076154;28;20213;-46
2022/03/27 01:46:13;;;;;;;12.67;10.70;;;;;20.60;101956.00;;;;2078674;28;20609;-44
2022/03/27 01:47:14;;;;;;;12.73;10.27;;;;;20.60;101958.00;;;;2076518;28;20239;-45
2022/03/27 01:48:14;;;;;;;11.70;10.50;;;;;20.60;101947.00;;;;2076964;28;20222;-45
2022/03/27 01:49:16;;;;;;;11.33;10.00;;;;;20.60;101958.00;;;;2077431;28;20213;-45
2022/03/27 01:50:16;;;;;;;12.63;11.13;;;;;20.60;101961.00;;;;2071506;28;20217;-44
2022/03/27 01:51:17;;;;;;;10.57;9.47;;;;;20.60;101955.00;;;;2078381;28;20222;-47
2022/03/27 01:52:17;;;;;;;10.90;9.73;;;;;20.60;101962.00;;;;2077630;28;20213;-45
2022/03/27 01:53:17;;;;;;;10.93;9.57;;;;;20.60;101956.00;;;;2078858;28;20225;-45
2022/03/27 01:54:19;;;;;;;11.00;9.83;;;;;20.60;101955.00;;;;2075237;28;20210;-45
2022/03/27 01:55:19;;;;;;;12.25;8.98;;;;;20.60;101954.00;;;;2075554;28;20221;-46
2022/03/27 01:56:19;;;;;;;10.37;8.30;;;;;20.60;101959.00;;;;2077324;28;20511;-45
2022/03/27 01:57:20;;;;;;;11.43;9.23;;;;;20.60;101960.00;;;;2077869;28;20240;-44
2022/03/27 01:58:20;;;;;;;10.87;9.53;;;;;20.60;101959.00;;;;2075735;28;20214;-44
2022/03/27 01:59:21;;;;;;;10.37;9.27;;;;;20.60;101961.00;;;;2078380;28;20224;-45
2022/03/27 02:00:21;;;;;;;9.57;8.57;;;;;20.60;101957.00;;;;2077180;28;20529;-46
2022/03/27 02:01:21;;;;;;;11.33;9.87;;;;;20.60;101957.00;;;;2075816;28;20244;-47
2022/03/27 02:02:25;;;;;;;10.03;9.03;;;;;20.60;101956.00;;;;2075964;28;20215;-44
2022/03/27 02:03:28;;;;;;;11.75;10.23;;;;;20.60;101957.00;;;;2078295;28;20263;-45
2022/03/27 02:04:28;;;;;;;10.40;9.38;;;;;20.60;101958.00;;;;2077673;28;20241;-45
2022/03/27 02:05:31;;;;;;;11.20;10.00;;;;;20.60;101961.00;;;;2078649;28;20220;-45
2022/03/27 02:06:37;;;;;;;9.95;8.75;;;;;20.60;101981.00;;;;2079679;28;20202;-44
2022/03/27 02:07:44;;;;;;;10.07;9.02;;;;;20.60;101960.00;;;;2073439;28;20210;-44
2022/03/27 02:08:44;;;;;;;10.07;8.70;;;;;20.60;101968.00;;;;2074807;28;20707;-45
2022/03/27 02:09:45;;;;;;;10.73;9.50;;;;;20.60;101957.00;;;;2076684;28;20216;-45
2022/03/27 02:10:45;;;;;;;8.97;8.17;;;;;20.60;101967.00;;;;2073175;28;20888;-44
2022/03/27 02:11:46;;;;;;;10.10;8.93;;;;;20.60;101959.00;;;;2074898;28;20944;-47
2022/03/27 02:12:46;;;;;;;9.60;8.60;;;;;20.60;101968.00;;;;2075513;28;20568;-45
2022/03/27 02:13:46;;;;;;;10.90;9.07;;;;;20.60;101963.00;;;;2076520;28;20210;-45
2022/03/27 02:14:47;;;;;;;9.70;8.67;;;;;20.60;101960.00;;;;2077363;28;20205;-45
2022/03/27 02:15:48;;;;;;;8.80;7.90;;;;;20.60;101958.00;;;;2074091;28;20220;-44
2022/03/27 02:16:48;;;;;;;9.20;8.23;;;;;20.60;101965.00;;;;2074850;28;20218;-44
2022/03/27 02:17:48;;;;;;;9.13;8.23;;;;;20.50;101963.00;;;;2071896;28;20218;-46
2022/03/27 02:18:49;;;;;;;9.10;8.07;;;;;20.60;101967.00;;;;2079568;28;20263;-46
2022/03/27 02:19:49;;;;;;;10.90;8.30;;;;;20.60;101956.00;;;;2076053;28;20297;-45
2022/03/27 02:20:49;;;;;;;9.73;8.73;;;;;20.60;101961.00;;;;2074539;28;20404;-45
2022/03/27 02:21:51;;;;;;;8.83;8.00;;;;;20.60;101962.00;;;;2076050;28;20214;-45
2022/03/27 02:22:51;;;;;;;10.32;9.30;;;;;20.50;101968.00;;;;2067428;28;20226;-44
2022/03/27 02:23:52;;;;;;;9.57;8.40;;;;;20.50;101964.00;;;;2068077;28;20562;-45
2022/03/27 02:24:52;;;;;;;9.70;8.70;;;;;20.60;101964.00;;;;2075955;28;20644;-44
2022/03/27 02:25:53;;;;;;;9.30;7.90;;;;;20.60;101964.00;;;;2071684;28;20209;-46
2022/03/27 02:26:53;;;;;;;10.00;8.53;;;;;20.60;101961.00;;;;2075885;28;20210;-46
2022/03/27 02:27:53;;;;;;;8.60;7.70;;;;;20.60;101962.00;;;;2073832;28;20952;-45
2022/03/27 02:28:54;;;;;;;8.50;7.70;;;;;20.50;101970.00;;;;2075946;28;20214;-44
2022/03/27 02:29:54;;;;;;;8.80;7.67;;;;;20.50;101964.00;;;;2075821;28;20229;-44
2022/03/27 02:30:54;;;;;;;8.63;7.73;;;;;20.50;101963.00;;;;2079418;28;20241;-44
2022/03/27 02:31:55;;;;;;;9.50;8.53;;;;;20.50;101966.00;;;;2076005;28;20693;-46
2022/03/27 02:32:56;;;;;;;8.60;7.67;;;;;20.50;101959.00;;;;2075149;28;20236;-45
2022/03/27 02:33:56;;;;;;;9.07;8.13;;;;;20.50;101961.00;;;;2075481;28;20214;-44
2022/03/27 02:34:56;;;;;;;9.80;8.10;;;;;20.50;101964.00;;;;2078024;28;20452;-45
2022/03/27 02:35:57;;;;;;;8.83;7.93;;;;;20.50;101964.00;;;;2070866;28;20218;-44
2022/03/27 02:36:57;;;;;;;8.80;7.90;;;;;20.50;101962.00;;;;2077316;28;20209;-46
2022/03/27 02:37:58;;;;;;;9.50;8.50;;;;;20.50;101961.00;;;;2072213;28;20225;-46
2022/03/27 02:38:58;;;;;;;7.43;6.67;;;;;20.50;101962.00;;;;2075581;28;20210;-44
2022/03/27 02:39:58;;;;;;;8.60;7.47;;;;;20.50;101954.00;;;;2077265;28;20295;-45
2022/03/27 02:40:59;;;;;;;7.60;6.90;;;;;20.50;101954.00;;;;2077937;28;20248;-44
2022/03/27 02:41:59;;;;;;;8.30;7.50;;;;;20.50;101952.00;;;;2079531;28;20214;-45
2022/03/27 02:43:00;;;;;;;8.23;7.43;;;;;20.60;101959.00;;;;2077413;28;20221;-46
2022/03/27 02:44:00;;;;;;;7.93;7.13;;;;;20.50;101952.00;;;;2073448;28;20265;-44
2022/03/27 02:45:00;;;;;;;8.20;7.40;;;;;20.50;101956.00;;;;2073088;28;20611;-45
2022/03/27 02:46:01;;;;;;;8.47;7.67;;;;;20.60;101954.00;;;;2078698;28;20210;-45
2022/03/27 02:47:01;;;;;;;9.60;7.57;;;;;20.50;101955.00;;;;2071260;28;20218;-44
2022/03/27 02:48:01;;;;;;;8.27;7.40;;;;;20.50;101996.00;;;;2078523;28;20271;-45
2022/03/27 02:49:02;;;;;;;9.00;7.57;;;;;20.50;101953.00;;;;2064444;28;20222;-47
2022/03/27 02:50:04;;;;;;;8.50;7.70;;;;;20.50;101957.00;;;;2081193;28;20209;-47
2022/03/27 02:51:05;;;;;;;7.60;6.90;;;;;20.50;101958.00;;;;2080179;28;20711;-45
2022/03/27 02:52:05;;;;;;;9.23;7.77;;;;;20.50;101960.00;;;;2074440;28;20225;-45
2022/03/27 02:53:06;;;;;;;7.90;7.07;;;;;20.50;101964.00;;;;2073663;28;20218;-45
2022/03/27 02:54:07;;;;;;;7.93;7.20;;;;;20.50;101958.00;;;;2072048;28;20285;-46
2022/03/27 02:55:08;;;;;;;7.55;6.63;;;;;20.50;101956.00;;;;2074528;28;20312;-45
2022/03/27 02:56:09;;;;;;;8.00;7.30;;;;;20.50;101959.00;;;;2070308;28;20581;-45
2022/03/27 02:57:09;;;;;;;6.90;6.20;;;;;20.50;101961.00;;;;2077267;28;20218;-45
2022/03/27 02:58:09;;;;;;;6.97;6.33;;;;;20.50;101953.00;;;;2072056;28;20214;-45
2022/03/27 02:59:10;;;;;;;8.40;6.30;;;;;20.50;101950.00;;;;2070771;28;20222;-46
2022/03/27 03:00:10;;;;;;;7.07;6.37;;;;;20.50;101955.00;;;;2071032;28;20248;-46
2022/03/27 03:01:11;;;;;;;8.37;7.57;;;;;20.50;101955.00;;;;2073371;28;20226;-46
2022/03/27 03:02:11;;;;;;;7.03;6.33;;;;;20.50;101944.00;;;;2073958;28;20303;-45
2022/03/27 03:03:13;;;;;;;7.70;6.90;;;;;20.50;101949.00;;;;2076964;28;20744;-45
2022/03/27 03:04:14;;;;;;;7.63;6.82;;;;;20.50;101951.00;;;;2077207;28;20351;-46
2022/03/27 03:05:14;;;;;;;7.97;7.27;;;;;20.50;101952.00;;;;2077897;28;20225;-45
2022/03/27 03:06:14;;;;;;;7.53;6.83;;;;;20.50;101957.00;;;;2078342;28;20709;-45
2022/03/27 03:07:15;;;;;;;7.60;6.77;;;;;20.50;101957.00;;;;2078895;28;20296;-46
2022/03/27 03:08:17;;;;;;;7.87;7.17;;;;;20.50;101956.00;;;;2078501;28;20226;-46
2022/03/27 03:09:17;;;;;;;6.70;6.10;;;;;20.50;101955.00;;;;2078749;28;20300;-46
2022/03/27 03:10:18;;;;;;;7.60;6.90;;;;;20.50;101955.00;;;;2078786;28;20220;-46
2022/03/27 03:11:20;;;;;;;7.10;6.40;;;;;20.50;101954.00;;;;2078734;28;20236;-46
2022/03/27 03:12:21;;;;;;;6.93;6.22;;;;;20.50;101959.00;;;;2078595;28;20313;-46
2022/03/27 03:13:21;;;;;;;9.00;6.90;;;;;20.50;101952.00;;;;2071783;28;20718;-46
2022/03/27 03:14:21;;;;;;;8.30;7.50;;;;;20.50;101953.00;;;;2069968;28;20480;-46
2022/03/27 03:15:23;;;;;;;7.40;6.70;;;;;20.50;101955.00;;;;2069793;28;20225;-46
2022/03/27 03:16:24;;;;;;;7.57;6.80;;;;;20.50;101950.00;;;;2070477;28;20214;-46
2022/03/27 03:17:25;;;;;;;8.90;6.57;;;;;20.40;101949.00;;;;2061849;28;20238;-47
2022/03/27 03:18:26;;;;;;;6.38;5.78;;;;;20.50;101947.00;;;;2061823;28;20269;-47
2022/03/27 03:19:26;;;;;;;7.03;6.33;;;;;20.50;101950.00;;;;2061690;28;20706;-47
2022/03/27 03:20:27;;;;;;;7.17;6.37;;;;;20.50;101951.00;;;;2061827;28;20718;-46
2022/03/27 03:21:27;;;;;;;7.70;6.83;;;;;20.50;101949.00;;;;2070748;28;20261;-47
2022/03/27 03:22:28;;;;;;;7.30;6.60;;;;;20.50;101959.00;;;;2070585;28;20816;-46
2022/03/27 03:23:28;;;;;;;7.60;6.80;;;;;20.50;101955.00;;;;2070738;28;20640;-47
2022/03/27 03:24:30;;;;;;;7.20;6.30;;;;;20.50;101960.00;;;;2070610;28;20206;-47
2022/03/27 03:25:31;;;;;;;7.70;6.90;;;;;20.40;101948.00;;;;2069488;28;20210;-47
2022/03/27 03:26:31;;;;;;;6.60;6.00;;;;;20.50;101948.00;;;;2070723;28;21090;-47
2022/03/27 03:27:31;;;;;;;7.50;6.80;;;;;20.50;101948.00;;;;2070492;28;20226;-46
2022/03/27 03:28:32;;;;;;;7.23;6.53;;;;;20.50;101952.00;;;;2070490;28;20218;-46
2022/03/27 03:29:33;;;;;;;7.23;6.53;;;;;20.50;101949.00;;;;2070348;28;20213;-46
2022/03/27 03:30:33;;;;;;;7.55;6.85;;;;;20.50;101952.00;;;;2070396;28;20225;-46
2022/03/27 03:31:33;;;;;;;6.57;6.00;;;;;20.50;101952.00;;;;2070490;28;20206;-45
2022/03/27 03:32:35;;;;;;;6.93;6.33;;;;;20.50;101951.00;;;;2070654;28;20260;-46
2022/03/27 03:33:36;;;;;;;6.32;5.72;;;;;20.40;101951.00;;;;2070748;28;20210;-46
2022/03/27 03:34:36;;;;;;;7.00;6.00;;;;;20.50;101952.00;;;;2070445;28;20674;-46
2022/03/27 03:35:36;;;;;;;6.90;6.20;;;;;20.50;101945.00;;;;2069689;28;20713;-45
2022/03/27 03:36:37;;;;;;;7.83;6.03;;;;;20.40;101946.00;;;;2069583;28;20217;-46
2022/03/27 03:37:37;;;;;;;6.60;6.00;;;;;20.40;101949.00;;;;2069619;28;20210;-46
2022/03/27 03:38:37;;;;;;;6.73;6.10;;;;;20.50;101951.00;;;;2069809;28;20233;-46
2022/03/27 03:39:38;;;;;;;6.97;6.27;;;;;20.40;101960.00;;;;2069678;28;20773;-46
2022/03/27 03:40:41;;;;;;;6.83;6.20;;;;;20.40;101958.00;;;;2070622;28;20671;-46
2022/03/27 03:41:41;;;;;;;6.40;5.80;;;;;20.40;101951.00;;;;2069673;28;20210;-46
2022/03/27 03:42:42;;;;;;;6.20;5.70;;;;;20.40;101958.00;;;;2073915;28;20712;-46
2022/03/27 03:43:42;;;;;;;6.40;5.80;;;;;20.40;101958.00;;;;2078693;28;20585;-46
2022/03/27 03:44:43;;;;;;;6.50;5.90;;;;;20.50;101946.00;;;;2078335;28;20202;-46
2022/03/27 03:45:43;;;;;;;7.07;6.37;;;;;20.40;101951.00;;;;2077910;28;20206;-46
2022/03/27 03:46:44;;;;;;;6.30;5.70;;;;;20.40;101953.00;;;;2078630;28;20566;-46
2022/03/27 03:47:44;;;;;;;7.00;6.40;;;;;20.40;101952.00;;;;2077945;28;21279;-46
2022/03/27 03:48:45;;;;;;;6.70;6.10;;;;;20.40;101949.00;;;;2078130;28;20214;-45
2022/03/27 03:49:45;;;;;;;6.70;6.00;;;;;20.40;101950.00;;;;2078738;28;20305;-46
2022/03/27 03:50:46;;;;;;;7.17;6.47;;;;;20.40;101950.00;;;;2069895;28;20580;-46
2022/03/27 03:51:46;;;;;;;6.43;5.80;;;;;20.40;101951.00;;;;2069685;28;21111;-45
2022/03/27 03:52:47;;;;;;;6.47;5.80;;;;;20.40;101951.00;;;;2078658;28;20698;-46
2022/03/27 03:53:47;;;;;;;7.63;6.93;;;;;20.40;101953.00;;;;2078495;28;20209;-46
2022/03/27 03:54:47;;;;;;;6.40;5.80;;;;;20.40;101957.00;;;;2077961;28;20694;-45
2022/03/27 03:55:48;;;;;;;6.80;6.10;;;;;20.40;101959.00;;;;2076964;28;20681;-46
2022/03/27 03:56:48;;;;;;;6.43;5.83;;;;;20.40;101951.00;;;;2077985;28;20279;-46
2022/03/27 03:57:49;;;;;;;6.50;5.90;;;;;20.40;101958.00;;;;2078716;28;20222;-45
2022/03/27 03:58:49;;;;;;;6.07;5.13;;;;;20.40;101951.00;;;;2078318;28;20823;-46
2022/03/27 03:59:49;;;;;;;7.80;6.77;;;;;20.40;101950.00;;;;2075265;28;20218;-45
2022/03/27 04:00:50;;;;;;;6.90;5.83;;;;;20.40;101956.00;;;;2064200;28;20284;-46
2022/03/27 04:01:51;;;;;;;6.45;5.95;;;;;20.40;101948.00;;;;2081611;28;20282;-46
2022/03/27 04:02:51;;;;;;;6.50;5.90;;;;;20.40;101950.00;;;;2075331;28;20409;-46
2022/03/27 04:03:52;;;;;;;6.60;6.00;;;;;20.40;101873.00;;;;2070595;28;20222;-46
2022/03/27 04:04:52;;;;;;;7.10;6.50;;;;;20.40;101952.00;;;;2069747;28;20214;-46
2022/03/27 04:05:52;;;;;;;7.30;6.60;;;;;20.40;101952.00;;;;2068944;28;20237;-46
2022/03/27 04:06:53;;;;;;;7.10;6.40;;;;;20.40;101950.00;;;;2070430;28;20218;-46
2022/03/27 04:07:53;;;;;;;7.10;6.40;;;;;20.40;101956.00;;;;2070341;28;20246;-46
2022/03/27 04:08:53;;;;;;;7.23;6.53;;;;;20.40;101948.00;;;;2070461;28;20230;-46
2022/03/27 04:09:54;;;;;;;6.60;6.00;;;;;20.40;101945.00;;;;2070557;28;20225;-46
2022/03/27 04:10:54;;;;;;;6.73;6.13;;;;;20.40;101949.00;;;;2070576;28;20309;-46
2022/03/27 04:11:55;;;;;;;6.87;6.27;;;;;20.40;101954.00;;;;2070574;28;20218;-46
2022/03/27 04:12:55;;;;;;;7.33;6.63;;;;;20.40;101953.00;;;;2070023;28;20253;-46
2022/03/27 04:13:55;;;;;;;6.60;6.00;;;;;20.40;101953.00;;;;2075003;28;20329;-46
2022/03/27 04:14:56;;;;;;;8.03;7.23;;;;;20.40;101952.00;;;;2077798;28;20222;-46
2022/03/27 04:15:56;;;;;;;6.80;6.20;;;;;20.40;101950.00;;;;2076051;28;20264;-46
2022/03/27 04:16:56;;;;;;;8.37;6.90;;;;;20.40;101945.00;;;;2078469;28;20588;-46
2022/03/27 04:18:00;;;;;;;7.90;7.10;;;;;20.40;101955.00;;;;2074281;28;20593;-46
2022/03/27 04:19:00;;;;;;;7.72;6.93;;;;;20.40;101950.00;;;;2070258;28;20214;-46
2022/03/27 04:20:01;;;;;;;8.40;7.50;;;;;20.40;101950.00;;;;2077798;28;20221;-46
2022/03/27 04:21:01;;;;;;;7.67;6.97;;;;;20.40;101950.00;;;;2076660;28;20214;-46
2022/03/27 04:22:01;;;;;;;8.37;7.57;;;;;20.30;101944.00;;;;2071859;28;20253;-46
2022/03/27 04:23:02;;;;;;;7.57;6.87;;;;;20.40;101950.00;;;;2071885;28;20206;-46
2022/03/27 04:24:03;;;;;;;7.67;6.87;;;;;20.40;101948.00;;;;2077622;28;20221;-46
2022/03/27 04:25:03;;;;;;;6.87;6.27;;;;;20.40;101954.00;;;;2079143;28;20387;-47
2022/03/27 04:26:04;;;;;;;8.03;7.23;;;;;20.40;101953.00;;;;2078978;28;20213;-46
2022/03/27 04:27:04;;;;;;;7.70;6.93;;;;;20.40;101956.00;;;;2079809;28;20210;-47
2022/03/27 04:28:07;;;;;;;7.20;6.60;;;;;20.40;101948.00;;;;2079468;28;20225;-47
2022/03/27 04:29:10;;;;;;;7.72;7.00;;;;;20.30;101947.00;;;;2080055;28;20222;-46
2022/03/27 04:30:11;;;;;;;7.30;6.60;;;;;20.40;101951.00;;;;2080239;28;20348;-46
2022/03/27 04:31:11;;;;;;;7.37;6.67;;;;;20.40;101956.00;;;;2080204;28;20209;-46
2022/03/27 04:32:11;;;;;;;7.20;6.50;;;;;20.40;101944.00;;;;2079965;28;20251;-47
2022/03/27 04:33:12;;;;;;;7.23;6.53;;;;;20.40;101953.00;;;;2079683;28;20216;-46
2022/03/27 04:34:13;;;;;;;7.80;7.00;;;;;20.40;101952.00;;;;2079998;28;20316;-46
2022/03/27 04:35:13;;;;;;;7.37;6.67;;;;;20.40;101951.00;;;;2079346;28;20281;-46
2022/03/27 04:36:13;;;;;;;8.10;7.30;;;;;20.40;101948.00;;;;2076765;28;20214;-46
2022/03/27 04:37:14;;;;;;;7.90;6.90;;;;;20.30;101950.00;;;;2080086;28;20213;-46
2022/03/27 04:38:16;;;;;;;7.60;6.80;;;;;20.40;101954.00;;;;2079863;28;20217;-46
2022/03/27 04:39:16;;;;;;;7.90;7.20;;;;;20.30;101944.00;;;;2080002;28;20296;-45
2022/03/27 04:40:18;;;;;;;8.30;7.50;;;;;20.40;101946.00;;;;2080125;28;20212;-46
2022/03/27 04:41:19;;;;;;;7.97;7.28;;;;;20.30;101951.00;;;;2080066;28;20760;-46
2022/03/27 04:42:19;;;;;;;8.30;7.50;;;;;20.40;101946.00;;;;2079840;28;20221;-46
2022/03/27 04:43:22;;;;;;;7.70;7.00;;;;;20.40;101950.00;;;;2080305;28;20248;-46
2022/03/27 04:44:22;;;;;;;7.65;6.95;;;;;20.40;101956.00;;;;2080006;28;20201;-46
2022/03/27 04:45:23;;;;;;;8.13;7.33;;;;;20.40;101957.00;;;;2079119;28;20209;-45
2022/03/27 04:46:23;;;;;;;8.13;6.93;;;;;20.30;101956.00;;;;2079897;28;20225;-46
2022/03/27 04:47:23;;;;;;;9.10;8.20;;;;;20.30;101958.00;;;;2079068;28;20205;-46
2022/03/27 04:48:25;;;;;;;7.93;7.20;;;;;20.30;101963.00;;;;2079171;28;20244;-46
2022/03/27 04:49:26;;;;;;;8.07;7.25;;;;;20.30;101958.00;;;;2079676;28;20212;-46
2022/03/27 04:50:26;;;;;;;8.00;7.20;;;;;20.30;101960.00;;;;2079749;28;20244;-46
2022/03/27 04:51:27;;;;;;;8.13;7.32;;;;;20.30;101966.00;;;;2079671;28;20256;-45
2022/03/27 04:52:28;;;;;;;8.77;7.87;;;;;20.30;101955.00;;;;2079422;28;20339;-45
2022/03/27 04:53:28;;;;;;;8.40;7.60;;;;;20.30;101964.00;;;;2077541;28;20291;-45
2022/03/27 04:54:30;;;;;;;8.23;7.43;;;;;20.30;101975.00;;;;2069395;28;20265;-46
2022/03/27 04:55:30;;;;;;;8.40;7.60;;;;;20.30;101968.00;;;;2077785;28;20708;-46
2022/03/27 04:56:31;;;;;;;8.73;7.70;;;;;20.30;101961.00;;;;2078868;28;20224;-46
2022/03/27 04:57:35;;;;;;;8.85;7.95;;;;;20.30;101969.00;;;;2078665;28;20220;-46
2022/03/27 04:58:35;;;;;;;9.65;8.85;;;;;20.30;101972.00;;;;2079451;28;20209;-46
2022/03/27 04:59:36;;;;;;;9.00;8.10;;;;;20.30;101971.00;;;;2079043;28;20580;-46
2022/03/27 05:00:37;;;;;;;8.30;7.50;;;;;20.30;101967.00;;;;2079904;28;20678;-46
2022/03/27 05:01:37;;;;;;;8.37;7.57;;;;;20.30;101964.00;;;;2071775;28;20596;-46